FranceFixed distance
Festival des Templiers - Le Grande Course
23 Oct2016
Distance
76km
Finishers
1,9831,774 men209 women
Winning time
6:45:12h
Median pace
5.76km/h
Pace distribution
1,983 finishers · 3.99–11.25 km/h · mean 5.98
Every finisher ran the same 76 km course, so these paces are directly comparable.
Histogram of finisher pace. 1,983 finishers ranged from 3.99 to 11.25 kilometres per hour, with a mean of 5.98 and a median of 5.76. The busiest band is 5.0 to 5.5 kilometres per hour, with 450 finishers.
Results
Ranks 1,701–1,750 of 1,983
| Rank | Runner | Time | Pace | Cat. | Placing |
|---|---|---|---|---|---|
| 1701 | Mortier, Jean-ClaudeFranceMan *Beauvais | 15:30:49h | 4.90 | M55 | 1547th M · 38th M55 |
| 1702 | Laurent, SylvainFranceMan *Carquefou | 15:30:54h | 4.90 | M35 | 1548th M · 336th M35 |
| 1703 | Lucas, FabriceFranceMan *Nantes | 15:30:57h | 4.90 | M40 | 1549th M · 357th M40 |
| 1704 | Wadbled, ChristopheFranceMan *Coursegoules | 15:31:04h | 4.90 | M35 | 1550th M · 337th M35 |
| 1705 | Creton, ChristopheFranceMan *St Martin De Nigelles | 15:31:07h | 4.90 | M45 | 1551st M · 228th M45 |
| 1705 | Khaldi, RaphaelFranceMan *Gas | 15:31:07h | 4.90 | M40 | 1551st M · 358th M40 |
| 1707 | Cadiou, DavidFranceMan *Guiclan | 15:31:10h | 4.90 | M23 | 1553rd M · 440th M23 |
| 1708 | Audouin, PierreFranceMan *Landivisiau | 15:31:13h | 4.90 | M23 | 1554th M · 441st M23 |
| 1709 | Bernadet, IngridFranceWoman *Marseille | 15:31:34h | 4.89 | W40 | 155th F · 43rd W40 |
| 1710 | Langlais, LaurentFranceMan SCO Angers | 15:33:06h | 4.89 | M50 | 1555th M · 120th M50 |
| 1711 | Angelini, JeromeFranceMan Domont Athletisme | 15:33:12h | 4.89 | M50 | 1556th M · 121st M50 |
| 1712 | Logeais, BrunoFranceMan *L'Orbrie | 15:33:13h | 4.89 | M23 | 1557th M · 442nd M23 |
| 1712 | Meynard-Duffour, BertrandFranceMan *Aillas | 15:33:13h | 4.89 | M40 | 1557th M · 359th M40 |
| 1712 | Reveleau, AurelienFranceMan *Lille | 15:33:13h | 4.89 | M23 | 1557th M · 442nd M23 |
| 1715 | Provost, LaurentFranceMan *Medreac | 15:33:14h | 4.89 | M40 | 1560th M · 360th M40 |
| 1716 | Williamson, NathalieFranceWoman *Audresselles | 15:33:15h | 4.89 | W50 | 156th F · 14th W50 |
| 1716 | Guilloux, RonanFranceMan *Ambérieu-En-Bugey | 15:33:15h | 4.89 | M40 | 1561st M · 361st M40 |
| 1718 | Duquenne, CharlotteFranceWoman *Wimille | 15:33:18h | 4.89 | W35 | 157th F · 27th W35 |
| 1719 | Guidat, SophieFranceWoman *Molsheim | 15:33:19h | 4.89 | W23 | 158th F · 44th W23 |
| 1720 | Varrel, SandrineFranceWoman *Ambérieu-En-Bugey | 15:33:21h | 4.89 | W35 | 159th F · 28th W35 |
| 1721 | Ferreol, NicolasFranceMan SA Toulouse UC | 15:33:30h | 4.88 | M40 | 1562nd M · 362nd M40 |
| 1722 | Cattez, FabienFranceMan *Aubers | 15:33:35h | 4.88 | M45 | 1563rd M · 229th M45 |
| 1723 | Fourn, PatrickFranceMan *Guipavas | 15:33:41h | 4.88 | M40 | 1564th M · 363rd M40 |
| 1724 | Liagre, Anne-CatherineFranceWoman *Wicres | 15:33:46h | 4.88 | W50 | 160th F · 15th W50 |
| 1725 | dos Santos, DavidFranceMan *Pouzauges | 15:33:50h | 4.88 | M23 | 1565th M · 444th M23 |
| 1726 | Dewisme, PhilippeFranceMan *La Gorgue | 15:33:51h | 4.88 | M45 | 1566th M · 230th M45 |
| 1727 | Bertolle, FabriceFranceMan *Margency | 15:34:06h | 4.88 | M45 | 1567th M · 231st M45 |
| 1727 | Labarre, AlexandreFranceMan *Courbevoie | 15:34:06h | 4.88 | M40 | 1567th M · 364th M40 |
| 1729 | Debruille, JulienFranceMan *Toulouse | 15:34:42h | 4.88 | M23 | 1569th M · 445th M23 |
| 1730 | Levert, PascalFranceMan SO Houilles | 15:35:38h | 4.87 | M50 | 1570th M · 122nd M50 |
| 1731 | Laine, RichardFranceMan *Pouzauges | 15:36:03h | 4.87 | M45 | 1571st M · 232nd M45 |
| 1732 | Capri, JulienFranceMan *Schaerbeek | 15:36:19h | 4.87 | M23 | 1572nd M · 446th M23 |
| 1733 | Chauvin, ArnaudFranceMan *Illkirch | 15:38:49h | 4.86 | M35 | 1573rd M · 338th M35 |
| 1734 | Frenot, PascalFranceMan *Caraman | 15:38:50h | 4.86 | M40 | 1574th M · 365th M40 |
| 1735 | Smiraoui, AichaFranceWoman Bethune Athletisme | 15:38:56h | 4.86 | W45 | 161st F · 25th W45 |
| 1736 | Pontac, LaurentFranceMan *Marennes | 15:38:58h | 4.86 | M45 | 1575th M · 233rd M45 |
| 1737 | Barbe, MichaelFranceMan *Caligny | 15:40:11h | 4.85 | M40 | 1576th M · 366th M40 |
| 1738 | Poncin, AurelienFranceMan *Lagnieu | 15:40:15h | 4.85 | M23 | 1577th M · 447th M23 |
| 1739 | Benavides, JhonColombiaMan *Bondy | 15:40:23h | 4.85 | M45 | 1578th M · 234th M45 |
| 1740 | Miloche, OlivierFranceMan *Paris | 15:44:16h | 4.83 | M45 | 1579th M · 235th M45 |
| 1741 | Rossigneux, XavierFranceMan *Genlis | 15:46:39h | 4.82 | M35 | 1580th M · 339th M35 |
| 1742 | Lopez, FabriceFranceMan *Nice | 15:46:41h | 4.82 | M40 | 1581st M · 367th M40 |
| 1743 | van Zandt, VirginieFranceWoman *Esse | 15:46:56h | 4.82 | W23 | 162nd F · 45th W23 |
| 1744 | Farine, SylvainSwitzerlandMan *Bevaix | 15:47:09h | 4.81 | M45 | 1582nd M · 236th M45 |
| 1745 | Aubin, DimitriFranceMan Free Runners LE Club | 15:47:11h | 4.81 | M40 | 1583rd M · 368th M40 |
| 1746 | Coquelle, ArnaudFranceMan *Pecquencourt | 15:48:19h | 4.81 | M35 | 1584th M · 340th M35 |
| 1747 | Poux, PierreFranceMan *Rueil Malmaison | 15:48:47h | 4.81 | M50 | 1585th M · 123rd M50 |
| 1748 | Fouilleul, BernardFranceMan *Gorron | 15:48:53h | 4.81 | M55 | 1586th M · 39th M55 |
| 1749 | Martel, FranckFranceMan *Neuville Sur Saone | 15:48:56h | 4.80 | M40 | 1587th M · 369th M40 |
| 1750 | Rouxel, PhilippeFranceMan *Bougival | 15:49:01h | 4.80 | M50 | 1588th M · 124th M50 |
- 1701Mortier, Jean-ClaudeFranceMan*Beauvais1547th M · 38th M55Time15:30:49hPace4.90Cat.M55
- 1702Laurent, SylvainFranceMan*Carquefou1548th M · 336th M35Time15:30:54hPace4.90Cat.M35
- 1703Lucas, FabriceFranceMan*Nantes1549th M · 357th M40Time15:30:57hPace4.90Cat.M40
- 1704Wadbled, ChristopheFranceMan*Coursegoules1550th M · 337th M35Time15:31:04hPace4.90Cat.M35
- 1705Creton, ChristopheFranceMan*St Martin De Nigelles1551st M · 228th M45Time15:31:07hPace4.90Cat.M45
- 1705Khaldi, RaphaelFranceMan*Gas1551st M · 358th M40Time15:31:07hPace4.90Cat.M40
- 1707Cadiou, DavidFranceMan*Guiclan1553rd M · 440th M23Time15:31:10hPace4.90Cat.M23
- 1708Audouin, PierreFranceMan*Landivisiau1554th M · 441st M23Time15:31:13hPace4.90Cat.M23
- 1709Bernadet, IngridFranceWoman*Marseille155th F · 43rd W40Time15:31:34hPace4.89Cat.W40
- 1710Langlais, LaurentFranceManSCO Angers1555th M · 120th M50Time15:33:06hPace4.89Cat.M50
- 1711Angelini, JeromeFranceManDomont Athletisme1556th M · 121st M50Time15:33:12hPace4.89Cat.M50
- 1712Logeais, BrunoFranceMan*L'Orbrie1557th M · 442nd M23Time15:33:13hPace4.89Cat.M23
- 1712Meynard-Duffour, BertrandFranceMan*Aillas1557th M · 359th M40Time15:33:13hPace4.89Cat.M40
- 1712Reveleau, AurelienFranceMan*Lille1557th M · 442nd M23Time15:33:13hPace4.89Cat.M23
- 1715Provost, LaurentFranceMan*Medreac1560th M · 360th M40Time15:33:14hPace4.89Cat.M40
- 1716Williamson, NathalieFranceWoman*Audresselles156th F · 14th W50Time15:33:15hPace4.89Cat.W50
- 1716Guilloux, RonanFranceMan*Ambérieu-En-Bugey1561st M · 361st M40Time15:33:15hPace4.89Cat.M40
- 1718Duquenne, CharlotteFranceWoman*Wimille157th F · 27th W35Time15:33:18hPace4.89Cat.W35
- 1719Guidat, SophieFranceWoman*Molsheim158th F · 44th W23Time15:33:19hPace4.89Cat.W23
- 1720Varrel, SandrineFranceWoman*Ambérieu-En-Bugey159th F · 28th W35Time15:33:21hPace4.89Cat.W35
- 1721Ferreol, NicolasFranceManSA Toulouse UC1562nd M · 362nd M40Time15:33:30hPace4.88Cat.M40
- 1722Cattez, FabienFranceMan*Aubers1563rd M · 229th M45Time15:33:35hPace4.88Cat.M45
- 1723Fourn, PatrickFranceMan*Guipavas1564th M · 363rd M40Time15:33:41hPace4.88Cat.M40
- 1724Liagre, Anne-CatherineFranceWoman*Wicres160th F · 15th W50Time15:33:46hPace4.88Cat.W50
- 1725dos Santos, DavidFranceMan*Pouzauges1565th M · 444th M23Time15:33:50hPace4.88Cat.M23
- 1726Dewisme, PhilippeFranceMan*La Gorgue1566th M · 230th M45Time15:33:51hPace4.88Cat.M45
- 1727Bertolle, FabriceFranceMan*Margency1567th M · 231st M45Time15:34:06hPace4.88Cat.M45
- 1727Labarre, AlexandreFranceMan*Courbevoie1567th M · 364th M40Time15:34:06hPace4.88Cat.M40
- 1729Debruille, JulienFranceMan*Toulouse1569th M · 445th M23Time15:34:42hPace4.88Cat.M23
- 1730Levert, PascalFranceManSO Houilles1570th M · 122nd M50Time15:35:38hPace4.87Cat.M50
- 1731Laine, RichardFranceMan*Pouzauges1571st M · 232nd M45Time15:36:03hPace4.87Cat.M45
- 1732Capri, JulienFranceMan*Schaerbeek1572nd M · 446th M23Time15:36:19hPace4.87Cat.M23
- 1733Chauvin, ArnaudFranceMan*Illkirch1573rd M · 338th M35Time15:38:49hPace4.86Cat.M35
- 1734Frenot, PascalFranceMan*Caraman1574th M · 365th M40Time15:38:50hPace4.86Cat.M40
- 1735Smiraoui, AichaFranceWomanBethune Athletisme161st F · 25th W45Time15:38:56hPace4.86Cat.W45
- 1736Pontac, LaurentFranceMan*Marennes1575th M · 233rd M45Time15:38:58hPace4.86Cat.M45
- 1737Barbe, MichaelFranceMan*Caligny1576th M · 366th M40Time15:40:11hPace4.85Cat.M40
- 1738Poncin, AurelienFranceMan*Lagnieu1577th M · 447th M23Time15:40:15hPace4.85Cat.M23
- 1739Benavides, JhonColombiaMan*Bondy1578th M · 234th M45Time15:40:23hPace4.85Cat.M45
- 1740Miloche, OlivierFranceMan*Paris1579th M · 235th M45Time15:44:16hPace4.83Cat.M45
- 1741Rossigneux, XavierFranceMan*Genlis1580th M · 339th M35Time15:46:39hPace4.82Cat.M35
- 1742Lopez, FabriceFranceMan*Nice1581st M · 367th M40Time15:46:41hPace4.82Cat.M40
- 1743van Zandt, VirginieFranceWoman*Esse162nd F · 45th W23Time15:46:56hPace4.82Cat.W23
- 1744Farine, SylvainSwitzerlandMan*Bevaix1582nd M · 236th M45Time15:47:09hPace4.81Cat.M45
- 1745Aubin, DimitriFranceManFree Runners LE Club1583rd M · 368th M40Time15:47:11hPace4.81Cat.M40
- 1746Coquelle, ArnaudFranceMan*Pecquencourt1584th M · 340th M35Time15:48:19hPace4.81Cat.M35
- 1747Poux, PierreFranceMan*Rueil Malmaison1585th M · 123rd M50Time15:48:47hPace4.81Cat.M50
- 1748Fouilleul, BernardFranceMan*Gorron1586th M · 39th M55Time15:48:53hPace4.81Cat.M55
- 1749Martel, FranckFranceMan*Neuville Sur Saone1587th M · 369th M40Time15:48:56hPace4.80Cat.M40
- 1750Rouxel, PhilippeFranceMan*Bougival1588th M · 124th M50Time15:49:01hPace4.80Cat.M50
Showing ranks 1,701–1,750 of 1,983